Latest Coastal Weather Observations for Cape Sorell

IDT60701

Issued at 3:45 pm EST Thursday 17 April 2014 (issued every 10 minutes, with the page automatically refreshed every 10 minutes)

About coastal observations | Map of coastal stations | Coastal observations for TAS | Marine services | Other Formats
Station Details ID: 097000 Name: CAPE SORELL Lat: -42.20 Lon: 145.17 Height: 19.3 m
Data from the previous 72 hours. | See also: Recent months at Cape Sorell
Date/Time
EST
Temp

°C
Wind Pressure Rain
since 9am
mm
Weather Cloud Vis
km
Sea
Height
m
Swell
Dir
 
Speed
knots
Gust
knots
hPa Trend Height
m
Period
s
Dir
17/03:30pm 17.0 NNW 10 13 1016.5 - 0.0 - - - - - - -
17/03:00pm 18.0 NNW 10 12 1016.5 - 0.0 - - - - - - -
17/02:30pm 18.9 NNW 8 11 1016.8 - 0.0 - - - - - - -
17/02:00pm 19.3 NNW 7 9 1017.1 - 0.0 - - - - - - -
17/01:30pm 19.4 NNW 8 10 1017.7 - 0.0 - - - - - - -
17/01:00pm 19.5 NNW 8 10 1018.1 - 0.0 - - - - - - -
17/12:30pm 19.6 NNW 6 8 1018.5 - 0.0 - - - - - - -
17/12:00pm 18.9 N 9 11 1018.8 - 0.0 - - - - - - -
17/11:30am 18.6 N 10 12 1019.1 - 0.0 - - - - - - -
17/11:00am 18.1 N 10 13 1019.4 - 0.0 - - - - - - -
17/10:30am 17.4 NNE 11 13 1019.4 - 0.0 - - - - - - -
17/10:00am 16.2 NNE 10 11 1019.3 - 0.0 - - - - - - -
17/09:30am 15.4 NE 9 11 1019.6 - 0.0 - - - - - - -
17/09:00am 14.7 NNE 7 11 1019.7 - 0.0 - - - - - - -
17/08:30am 13.9 NE 11 14 1019.4 - 0.0 - - - - - - -
17/08:00am 13.6 NE 12 14 1019.2 - 0.0 - - - - - - -
17/07:30am 13.1 NE 10 12 1019.3 - 0.0 - - - - - - -
17/07:00am 11.9 ENE 8 10 1019.3 - 0.0 - - - - - - -
17/06:30am 11.9 ENE 7 9 1019.3 - 0.0 - - - - - - -
17/06:00am 11.2 ENE 10 12 1019.3 - 0.0 - - - - - - -
17/05:30am 11.6 ENE 9 10 1019.3 - 0.0 - - - - - - -
17/05:00am 11.1 ENE 5 7 1019.4 - 0.0 - - - - - - -
17/04:30am 11.6 ENE 6 8 1019.4 - 0.0 - - - - - - -
17/04:00am 12.2 ENE 6 7 1019.1 - 0.0 - - - - - - -
17/03:30am 13.4 NNE 7 10 1019.0 - 0.0 - - - - - - -
17/03:00am 12.9 NE 7 8 1019.2 - 0.0 - - - - - - -
17/02:30am 13.7 NNE 8 12 1019.4 - 0.0 - - - - - - -
17/02:00am 13.5 NE 10 13 1019.4 - 0.0 - - - - - - -
17/01:30am 13.3 NE 8 10 1019.6 - 0.0 - - - - - - -
17/01:00am 13.9 NNE 9 11 1019.6 - 0.0 - - - - - - -
17/12:30am 14.1 NNE 9 10 1019.5 - 0.0 - - - - - - -
17/12:00am 14.1 NNE 8 10 1019.7 - 0.0 - - - - - - -
 
Date/Time
EST
Temp

°C
Wind Pressure Rain
since 9am
mm
Weather Cloud Vis
km
Sea
Height
m
Swell
Dir
 
Speed
knots
Gust
knots
hPa Trend Height
m
Period
s
Dir
16/11:30pm 14.4 NNE 7 9 1020.0 - 0.0 - - - - - - -
16/11:00pm 14.3 N 9 11 1020.1 - 0.0 - - - - - - -
16/10:30pm 13.4 ENE 6 9 1019.9 - 0.0 - - - - - - -
16/10:00pm 13.7 E 8 10 1019.8 - 0.0 - - - - - - -
16/09:30pm 13.8 E 8 10 1019.7 - 0.0 - - - - - - -
16/09:00pm 14.2 E 3 5 1019.9 - 0.0 - - - - - - -
16/08:30pm 14.7 NNE 1 4 1019.7 - 0.0 - - - - - - -
16/08:00pm 14.4 W 2 2 1019.4 - 0.0 - - - - - - -
16/07:30pm 14.7 W 2 4 1019.4 - 0.0 - - - - - - -
16/07:00pm 15.0 W 4 6 1019.5 - 0.0 - - - - - - -
16/06:30pm 15.3 W 5 8 1019.4 - 0.0 - - - - - - -
16/06:00pm 15.4 W 4 7 1019.4 - 0.0 - - - - - - -
16/05:30pm 15.6 W 6 9 1019.3 - 0.0 - - - - - - -
16/05:00pm 15.7 W 11 14 1019.2 - 0.0 - - - - - - -
16/04:30pm 16.6 W 12 15 1019.1 - 0.0 - - - - - - -
16/04:00pm 16.6 WNW 10 14 1019.1 - 0.0 - - - - - - -
16/03:30pm 17.0 WNW 11 14 1019.0 - 0.0 - - - - - - -
16/03:00pm 17.3 WNW 11 14 1019.0 - 0.0 - - - - - - -
16/02:30pm 17.1 NW 7 10 1019.1 - 0.0 - - - - - - -
16/02:00pm 18.0 NW 6 9 1019.2 - 0.0 - - - - - - -
16/01:30pm 18.2 NW 6 9 1019.4 - 0.0 - - - - - - -
16/01:00pm 18.1 NNW 5 7 1019.7 - 0.0 - - - - - - -
16/12:30pm 16.7 N 6 7 1020.1 - 0.0 - - - - - - -
16/12:00pm 16.6 NNE 6 8 1020.5 - 0.0 - - - - - - -
16/11:30am 16.1 NNE 9 10 1020.6 - 0.0 - - - - - - -
16/11:00am 15.8 NE 9 12 1020.7 - 0.0 - - - - - - -
16/10:30am 15.6 NNE 10 12 1020.8 - 0.0 - - - - - - -
16/10:00am 15.7 NE 8 10 1021.0 - 0.0 - - - - - - -
16/09:30am 14.7 NE 7 9 1021.2 - 0.0 - - - - - - -
16/09:00am 14.1 NE 7 10 1021.5 - 0.0 - - - - - - -
16/08:30am 13.3 ENE 7 10 1021.3 - 0.0 - - - - - - -
16/08:00am 12.9 ENE 8 10 1021.4 - 0.0 - - - - - - -
16/07:30am 12.5 ENE 8 10 1021.3 - 0.0 - - - - - - -
16/07:00am 12.3 ENE 9 11 1021.3 - 0.0 - - - - - - -
16/06:30am 12.3 ENE 9 11 1021.2 - 0.0 - - - - - - -
16/06:00am 12.6 ENE 10 13 1021.1 - 0.0 - - - - - - -
16/05:30am 12.5 ENE 11 14 1021.0 - 0.0 - - - - - - -
16/05:00am 12.9 NE 9 12 1021.1 - 0.0 - - - - - - -
16/04:30am 12.6 ENE 9 11 1021.3 - 0.0 - - - - - - -
16/04:00am 12.6 ENE 9 11 1021.4 - 0.0 - - - - - - -
16/03:30am 12.6 ENE 8 9 1021.5 - 0.0 - - - - - - -
16/03:00am 13.0 ENE 10 13 1021.7 - 0.0 - - - - - - -
16/02:30am 12.8 ENE 7 9 1022.1 - 0.0 - - - - - - -
16/02:00am 12.1 E 8 10 1022.3 - 0.0 - - - - - - -
16/01:30am 12.3 ENE 7 8 1022.6 - 0.0 - - - - - - -
16/01:00am 12.5 E 7 8 1022.9 - 0.0 - - - - - - -
16/12:30am 13.2 E 5 6 1023.0 - 0.0 - - - - - - -
16/12:00am 13.3 E 5 6 1023.2 - 0.0 - - - - - - -
 
Date/Time
EST
Temp

°C
Wind Pressure Rain
since 9am
mm
Weather Cloud Vis
km
Sea
Height
m
Swell
Dir
 
Speed
knots
Gust
knots
hPa Trend Height
m
Period
s
Dir
15/11:30pm 14.4 NE 6 7 1023.4 - 0.0 - - - - - - -
15/11:00pm 14.5 NNE 6 7 1023.7 - 0.0 - - - - - - -
15/10:30pm 14.5 N 5 6 1023.9 - 0.0 - - - - - - -
15/10:00pm 14.6 N 5 6 1024.0 - 0.0 - - - - - - -
15/09:30pm 14.1 E 2 2 1024.0 - 0.0 - - - - - - -
15/09:00pm 13.9 SW 1 3 1023.8 - 0.0 - - - - - - -
15/08:30pm 14.0 CALM 0 0 1023.6 - 0.0 - - - - - - -
15/08:00pm 13.9 SW 2 3 1023.6 - 0.0 - - - - - - -
15/07:30pm 14.1 SW 4 5 1023.7 - 0.0 - - - - - - -
15/07:00pm 14.2 SW 6 7 1023.7 - 0.0 - - - - - - -
15/06:30pm 14.2 SSW 7 8 1023.4 - 0.0 - - - - - - -
15/06:00pm 14.6 SSW 8 9 1023.0 - 0.0 - - - - - - -
15/05:30pm 14.9 SSW 8 9 1022.8 - 0.0 - - - - - - -
15/05:00pm 15.5 SSW 8 9 1022.8 - 0.0 - - - - - - -
15/04:30pm 15.9 SSW 9 10 1022.7 - 0.0 - - - - - - -
15/04:00pm 16.1 SSW 9 10 1022.7 - 0.0 - - - - - - -
15/03:30pm 16.4 SSW 9 10 1023.0 - 0.0 - - - - - - -
15/03:00pm 16.3 S 9 11 1023.0 - 0.0 - - - - - - -
15/02:30pm 16.5 SSW 9 11 1023.3 - 0.0 - - - - - - -
15/02:00pm 16.7 SSW 11 13 1023.4 - 0.0 - - - - - - -
15/01:30pm 16.7 SSW 10 12 1023.5 - 0.0 - - - - - - -
15/01:00pm 16.7 SSW 9 11 1023.6 - 0.0 - - - - - - -
15/12:30pm 16.0 SSW 9 10 1024.1 - 0.0 - - - - - - -
15/12:00pm 16.5 SSW 8 10 1024.4 - 0.0 - - - - - - -
15/11:30am 16.2 SSW 7 9 1024.7 - 0.0 - - - - - - -
15/11:00am 15.4 SSW 5 7 1024.9 - 0.0 - - - - - - -
15/10:30am 15.4 SSW 4 5 1024.9 - 0.0 - - - - - - -
15/10:00am 14.7 ESE 4 6 1025.0 - 0.0 - - - - - - -
15/09:30am 14.3 SSE 3 5 1025.0 - 0.0 - - - - - - -
15/09:00am 13.8 SSE 3 4 1025.0 - 0.2 - - - - - - -
15/08:30am 13.3 SE 3 4 1025.1 - 0.2 - - - - - - -
15/08:00am 12.9 SE 3 5 1025.0 - 0.2 - - - - - - -
15/07:30am 12.7 SSE 3 5 1024.8 - 0.2 - - - - - - -
15/07:00am 12.8 S 5 8 1024.4 - 0.2 - - - - - - -
15/06:30am 12.5 SSE 4 6 1024.3 - 0.2 - - - - - - -
15/06:00am 12.6 SSE 5 6 1024.2 - 0.2 - - - - - - -
15/05:30am 12.8 S 7 10 1024.2 - 0.2 - - - - - - -
15/05:00am 12.5 SSE 6 9 1024.0 - 0.2 - - - - - - -
15/04:30am 12.6 SSE 7 9 1024.1 - 0.2 - - - - - - -
15/04:00am 12.9 S 6 10 1024.1 - 0.2 - - - - - - -
15/03:30am 12.5 SE 8 10 1024.0 - 0.2 - - - - - - -
15/03:00am 13.3 S 12 16 1024.0 - 0.2 - - - - - - -
15/02:30am 13.1 S 13 18 1024.1 - 0.2 - - - - - - -
15/02:00am 13.0 S 12 16 1024.2 - 0.2 - - - - - - -
15/01:30am 13.2 S 11 14 1024.2 - 0.2 - - - - - - -
15/01:00am 13.6 S 11 15 1024.1 - 0.2 - - - - - - -
15/12:30am 13.2 S 11 14 1024.1 - 0.2 - - - - - - -
15/12:00am 13.4 S 10 13 1024.2 - 0.2 - - - - - - -
 
Date/Time
EST
Temp

°C
Wind Pressure Rain
since 9am
mm
Weather Cloud Vis
km
Sea
Height
m
Swell
Dir
 
Speed
knots
Gust
knots
hPa Trend Height
m
Period
s
Dir
14/11:30pm 13.3 S 11 14 1024.2 - 0.2 - - - - - - -
14/11:00pm 13.2 SSE 9 12 1024.3 - 0.2 - - - - - - -
14/10:30pm 13.8 S 8 10 1024.5 - 0.2 - - - - - - -
14/10:00pm 13.7 S 7 10 1024.5 - 0.2 - - - - - - -
14/09:30pm 13.4 SSE 6 8 1024.5 - 0.2 - - - - - - -
14/09:00pm 13.6 S 8 11 1024.5 - 0.2 - - - - - - -
14/08:30pm 13.6 SSE 7 10 1024.5 - 0.2 - - - - - - -
14/08:00pm 13.4 SSE 8 11 1024.2 - 0.2 - - - - - - -
14/07:30pm 13.9 S 12 16 1024.1 - 0.2 - - - - - - -
14/07:00pm 13.9 S 12 15 1024.0 - 0.2 - - - - - - -
14/06:30pm 14.4 S 9 12 1023.7 - 0.2 - - - - - - -
14/06:00pm 14.6 SSW 12 14 1023.6 - 0.2 - - - - - - -
14/05:30pm 14.8 SSW 12 14 1023.4 - 0.2 - - - - - - -
14/05:00pm 15.0 SSW 10 11 1023.4 - 0.2 - - - - - - -
14/04:30pm 15.8 SSW 10 12 1023.3 - 0.2 - - - - - - -
14/04:00pm 16.3 SSW 10 12 1023.4 - 0.2 - - - - - - -

Other Formats:

Comma delimited format used in spreadsheet applications
http://www.bom.gov.au/fwo/IDT60701/IDT60701.94974.axf

JavaScript Object Notation format (JSON) in row-major order
http://www.bom.gov.au/fwo/IDT60701/IDT60701.94974.json